<?xml version="1.0" encoding="UTF-8" standalone="no" ?>
<gpx xmlns="http://www.topografix.com/GPX/1/1" xmlns:xsi="http://www.w3.org/2001/XMLSchema-instance" xsi:schemaLocation="http://www.topografix.com/GPX/1/1 http://www.topografix.com/GPX/1/1/gpx.xsd" version="1.1" creator="VisuGPX - https://www.visugpx.com">
  <metadata>
    <name>Rando du jeudi 21 sept 2017</name>
    <desc><![CDATA[Balade avec les collègues de la gym du mardi.]]></desc>
  </metadata>
  <trk>
    <name><![CDATA[20170921114747-ylxPV]]></name>
    <trkseg>
      <trkpt lat="47.27982" lon="5.00302">
        <ele>266</ele>
        <time>2017-09-21T08:06:15Z</time>
      </trkpt>
      <trkpt lat="47.27988" lon="5.00308">
        <ele>265</ele>
        <time>2017-09-21T08:06:26Z</time>
      </trkpt>
      <trkpt lat="47.28002" lon="5.00313">
        <ele>265</ele>
        <time>2017-09-21T08:06:37Z</time>
      </trkpt>
      <trkpt lat="47.28013" lon="5.0032">
        <ele>265</ele>
        <time>2017-09-21T08:06:48Z</time>
      </trkpt>
      <trkpt lat="47.28015" lon="5.0032">
        <ele>265</ele>
        <time>2017-09-21T08:07:10Z</time>
      </trkpt>
      <trkpt lat="47.28015" lon="5.0032">
        <ele>265</ele>
        <time>2017-09-21T08:07:10Z</time>
      </trkpt>
      <trkpt lat="47.28027" lon="5.00323">
        <ele>265</ele>
        <time>2017-09-21T08:07:21Z</time>
      </trkpt>
      <trkpt lat="47.28037" lon="5.0033">
        <ele>265</ele>
        <time>2017-09-21T08:07:32Z</time>
      </trkpt>
      <trkpt lat="47.28045" lon="5.00328">
        <ele>265</ele>
        <time>2017-09-21T08:07:43Z</time>
      </trkpt>
      <trkpt lat="47.28057" lon="5.0033">
        <ele>265</ele>
        <time>2017-09-21T08:07:54Z</time>
      </trkpt>
      <trkpt lat="47.28068" lon="5.00335">
        <ele>265</ele>
        <time>2017-09-21T08:08:05Z</time>
      </trkpt>
      <trkpt lat="47.28078" lon="5.00342">
        <ele>265</ele>
        <time>2017-09-21T08:08:16Z</time>
      </trkpt>
      <trkpt lat="47.2809" lon="5.00338">
        <ele>265</ele>
        <time>2017-09-21T08:08:27Z</time>
      </trkpt>
      <trkpt lat="47.281" lon="5.00338">
        <ele>265</ele>
        <time>2017-09-21T08:08:38Z</time>
      </trkpt>
      <trkpt lat="47.28112" lon="5.0034">
        <ele>265</ele>
        <time>2017-09-21T08:08:49Z</time>
      </trkpt>
      <trkpt lat="47.28123" lon="5.00345">
        <ele>265</ele>
        <time>2017-09-21T08:09:00Z</time>
      </trkpt>
      <trkpt lat="47.28137" lon="5.0035">
        <ele>265</ele>
        <time>2017-09-21T08:09:11Z</time>
      </trkpt>
      <trkpt lat="47.2815" lon="5.0036">
        <ele>265</ele>
        <time>2017-09-21T08:09:22Z</time>
      </trkpt>
      <trkpt lat="47.2816" lon="5.00367">
        <ele>265</ele>
        <time>2017-09-21T08:09:33Z</time>
      </trkpt>
      <trkpt lat="47.28168" lon="5.00373">
        <ele>265</ele>
        <time>2017-09-21T08:09:44Z</time>
      </trkpt>
      <trkpt lat="47.28182" lon="5.00385">
        <ele>265</ele>
        <time>2017-09-21T08:09:55Z</time>
      </trkpt>
      <trkpt lat="47.2819" lon="5.00383">
        <ele>265</ele>
        <time>2017-09-21T08:10:06Z</time>
      </trkpt>
      <trkpt lat="47.28195" lon="5.00373">
        <ele>265</ele>
        <time>2017-09-21T08:10:17Z</time>
      </trkpt>
      <trkpt lat="47.282" lon="5.00367">
        <ele>265</ele>
        <time>2017-09-21T08:10:28Z</time>
      </trkpt>
      <trkpt lat="47.2821" lon="5.00365">
        <ele>265</ele>
        <time>2017-09-21T08:10:39Z</time>
      </trkpt>
      <trkpt lat="47.28223" lon="5.00367">
        <ele>265</ele>
        <time>2017-09-21T08:10:50Z</time>
      </trkpt>
      <trkpt lat="47.28235" lon="5.00373">
        <ele>265</ele>
        <time>2017-09-21T08:11:01Z</time>
      </trkpt>
      <trkpt lat="47.28247" lon="5.00375">
        <ele>265</ele>
        <time>2017-09-21T08:11:12Z</time>
      </trkpt>
      <trkpt lat="47.28262" lon="5.00372">
        <ele>265</ele>
        <time>2017-09-21T08:11:23Z</time>
      </trkpt>
      <trkpt lat="47.28268" lon="5.00367">
        <ele>265</ele>
        <time>2017-09-21T08:11:34Z</time>
      </trkpt>
      <trkpt lat="47.28272" lon="5.00363">
        <ele>265</ele>
        <time>2017-09-21T08:11:45Z</time>
      </trkpt>
      <trkpt lat="47.28287" lon="5.00362">
        <ele>265</ele>
        <time>2017-09-21T08:11:56Z</time>
      </trkpt>
      <trkpt lat="47.28303" lon="5.00367">
        <ele>265</ele>
        <time>2017-09-21T08:12:07Z</time>
      </trkpt>
      <trkpt lat="47.28317" lon="5.00373">
        <ele>264</ele>
        <time>2017-09-21T08:12:18Z</time>
      </trkpt>
      <trkpt lat="47.28328" lon="5.0038">
        <ele>264</ele>
        <time>2017-09-21T08:12:29Z</time>
      </trkpt>
      <trkpt lat="47.28337" lon="5.00377">
        <ele>263</ele>
        <time>2017-09-21T08:12:40Z</time>
      </trkpt>
      <trkpt lat="47.28345" lon="5.00363">
        <ele>264</ele>
        <time>2017-09-21T08:12:51Z</time>
      </trkpt>
      <trkpt lat="47.28353" lon="5.00358">
        <ele>264</ele>
        <time>2017-09-21T08:13:02Z</time>
      </trkpt>
      <trkpt lat="47.28363" lon="5.00342">
        <ele>264</ele>
        <time>2017-09-21T08:13:13Z</time>
      </trkpt>
      <trkpt lat="47.2837" lon="5.00327">
        <ele>265</ele>
        <time>2017-09-21T08:13:24Z</time>
      </trkpt>
      <trkpt lat="47.28375" lon="5.00307">
        <ele>265</ele>
        <time>2017-09-21T08:13:35Z</time>
      </trkpt>
      <trkpt lat="47.28377" lon="5.00302">
        <ele>265</ele>
        <time>2017-09-21T08:13:46Z</time>
      </trkpt>
      <trkpt lat="47.28383" lon="5.00297">
        <ele>265</ele>
        <time>2017-09-21T08:13:57Z</time>
      </trkpt>
      <trkpt lat="47.28383" lon="5.00285">
        <ele>265</ele>
        <time>2017-09-21T08:14:08Z</time>
      </trkpt>
      <trkpt lat="47.2839" lon="5.00263">
        <ele>265</ele>
        <time>2017-09-21T08:14:19Z</time>
      </trkpt>
      <trkpt lat="47.28395" lon="5.00243">
        <ele>265</ele>
        <time>2017-09-21T08:14:30Z</time>
      </trkpt>
      <trkpt lat="47.284" lon="5.00228">
        <ele>265</ele>
        <time>2017-09-21T08:14:41Z</time>
      </trkpt>
      <trkpt lat="47.28407" lon="5.00205">
        <ele>265</ele>
        <time>2017-09-21T08:14:52Z</time>
      </trkpt>
      <trkpt lat="47.28413" lon="5.0018">
        <ele>265</ele>
        <time>2017-09-21T08:15:03Z</time>
      </trkpt>
      <trkpt lat="47.28413" lon="5.00173">
        <ele>265</ele>
        <time>2017-09-21T08:15:14Z</time>
      </trkpt>
      <trkpt lat="47.28407" lon="5.00158">
        <ele>265</ele>
        <time>2017-09-21T08:15:25Z</time>
      </trkpt>
      <trkpt lat="47.28402" lon="5.00147">
        <ele>265</ele>
        <time>2017-09-21T08:15:36Z</time>
      </trkpt>
      <trkpt lat="47.28395" lon="5.00137">
        <ele>266</ele>
        <time>2017-09-21T08:15:47Z</time>
      </trkpt>
      <trkpt lat="47.28387" lon="5.00125">
        <ele>266</ele>
        <time>2017-09-21T08:15:58Z</time>
      </trkpt>
      <trkpt lat="47.2838" lon="5.00112">
        <ele>266</ele>
        <time>2017-09-21T08:16:09Z</time>
      </trkpt>
      <trkpt lat="47.28368" lon="5.00098">
        <ele>266</ele>
        <time>2017-09-21T08:16:20Z</time>
      </trkpt>
      <trkpt lat="47.28358" lon="5.00083">
        <ele>266</ele>
        <time>2017-09-21T08:16:31Z</time>
      </trkpt>
      <trkpt lat="47.28348" lon="5.00075">
        <ele>266</ele>
        <time>2017-09-21T08:16:42Z</time>
      </trkpt>
      <trkpt lat="47.28335" lon="5.00065">
        <ele>267</ele>
        <time>2017-09-21T08:16:53Z</time>
      </trkpt>
      <trkpt lat="47.28323" lon="5.00055">
        <ele>267</ele>
        <time>2017-09-21T08:17:04Z</time>
      </trkpt>
      <trkpt lat="47.28315" lon="5.00043">
        <ele>268</ele>
        <time>2017-09-21T08:17:15Z</time>
      </trkpt>
      <trkpt lat="47.28305" lon="5.0003">
        <ele>268</ele>
        <time>2017-09-21T08:17:26Z</time>
      </trkpt>
      <trkpt lat="47.28293" lon="5.00022">
        <ele>268</ele>
        <time>2017-09-21T08:17:37Z</time>
      </trkpt>
      <trkpt lat="47.28283" lon="5.0001">
        <ele>268</ele>
        <time>2017-09-21T08:17:48Z</time>
      </trkpt>
      <trkpt lat="47.28272" lon="5">
        <ele>268</ele>
        <time>2017-09-21T08:17:59Z</time>
      </trkpt>
      <trkpt lat="47.2826" lon="4.99988">
        <ele>268</ele>
        <time>2017-09-21T08:18:10Z</time>
      </trkpt>
      <trkpt lat="47.28258" lon="4.9997">
        <ele>268</ele>
        <time>2017-09-21T08:18:21Z</time>
      </trkpt>
      <trkpt lat="47.28258" lon="4.99957">
        <ele>268</ele>
        <time>2017-09-21T08:18:32Z</time>
      </trkpt>
      <trkpt lat="47.28265" lon="4.9994">
        <ele>268</ele>
        <time>2017-09-21T08:18:43Z</time>
      </trkpt>
      <trkpt lat="47.28273" lon="4.99923">
        <ele>268</ele>
        <time>2017-09-21T08:18:54Z</time>
      </trkpt>
      <trkpt lat="47.28282" lon="4.99905">
        <ele>268</ele>
        <time>2017-09-21T08:19:05Z</time>
      </trkpt>
      <trkpt lat="47.28288" lon="4.99888">
        <ele>268</ele>
        <time>2017-09-21T08:19:16Z</time>
      </trkpt>
      <trkpt lat="47.28295" lon="4.9987">
        <ele>268</ele>
        <time>2017-09-21T08:19:27Z</time>
      </trkpt>
      <trkpt lat="47.28303" lon="4.99855">
        <ele>268</ele>
        <time>2017-09-21T08:19:38Z</time>
      </trkpt>
      <trkpt lat="47.28305" lon="4.99837">
        <ele>268</ele>
        <time>2017-09-21T08:19:49Z</time>
      </trkpt>
      <trkpt lat="47.283" lon="4.9982">
        <ele>268</ele>
        <time>2017-09-21T08:20:00Z</time>
      </trkpt>
      <trkpt lat="47.28293" lon="4.99807">
        <ele>268</ele>
        <time>2017-09-21T08:20:11Z</time>
      </trkpt>
      <trkpt lat="47.28288" lon="4.99795">
        <ele>268</ele>
        <time>2017-09-21T08:20:22Z</time>
      </trkpt>
      <trkpt lat="47.28293" lon="4.99787">
        <ele>268</ele>
        <time>2017-09-21T08:20:33Z</time>
      </trkpt>
      <trkpt lat="47.28302" lon="4.99783">
        <ele>268</ele>
        <time>2017-09-21T08:20:44Z</time>
      </trkpt>
      <trkpt lat="47.28313" lon="4.99777">
        <ele>268</ele>
        <time>2017-09-21T08:20:55Z</time>
      </trkpt>
      <trkpt lat="47.28323" lon="4.99777">
        <ele>268</ele>
        <time>2017-09-21T08:21:06Z</time>
      </trkpt>
      <trkpt lat="47.28335" lon="4.99782">
        <ele>269</ele>
        <time>2017-09-21T08:21:17Z</time>
      </trkpt>
      <trkpt lat="47.28347" lon="4.99792">
        <ele>269</ele>
        <time>2017-09-21T08:21:28Z</time>
      </trkpt>
      <trkpt lat="47.28357" lon="4.99798">
        <ele>269</ele>
        <time>2017-09-21T08:21:39Z</time>
      </trkpt>
      <trkpt lat="47.28363" lon="4.99805">
        <ele>269</ele>
        <time>2017-09-21T08:21:50Z</time>
      </trkpt>
      <trkpt lat="47.28375" lon="4.99815">
        <ele>270</ele>
        <time>2017-09-21T08:22:01Z</time>
      </trkpt>
      <trkpt lat="47.28383" lon="4.99822">
        <ele>270</ele>
        <time>2017-09-21T08:22:12Z</time>
      </trkpt>
      <trkpt lat="47.28397" lon="4.9983">
        <ele>270</ele>
        <time>2017-09-21T08:22:23Z</time>
      </trkpt>
      <trkpt lat="47.28405" lon="4.99837">
        <ele>269</ele>
        <time>2017-09-21T08:22:34Z</time>
      </trkpt>
      <trkpt lat="47.28418" lon="4.99847">
        <ele>270</ele>
        <time>2017-09-21T08:22:45Z</time>
      </trkpt>
      <trkpt lat="47.28432" lon="4.99857">
        <ele>269</ele>
        <time>2017-09-21T08:22:56Z</time>
      </trkpt>
      <trkpt lat="47.28442" lon="4.99863">
        <ele>269</ele>
        <time>2017-09-21T08:23:07Z</time>
      </trkpt>
      <trkpt lat="47.28453" lon="4.9987">
        <ele>269</ele>
        <time>2017-09-21T08:23:18Z</time>
      </trkpt>
      <trkpt lat="47.28463" lon="4.99877">
        <ele>269</ele>
        <time>2017-09-21T08:23:29Z</time>
      </trkpt>
      <trkpt lat="47.28472" lon="4.99887">
        <ele>269</ele>
        <time>2017-09-21T08:23:40Z</time>
      </trkpt>
      <trkpt lat="47.28478" lon="4.99903">
        <ele>269</ele>
        <time>2017-09-21T08:23:51Z</time>
      </trkpt>
      <trkpt lat="47.28487" lon="4.99917">
        <ele>267</ele>
        <time>2017-09-21T08:24:02Z</time>
      </trkpt>
      <trkpt lat="47.28498" lon="4.99927">
        <ele>267</ele>
        <time>2017-09-21T08:24:13Z</time>
      </trkpt>
      <trkpt lat="47.28512" lon="4.99937">
        <ele>267</ele>
        <time>2017-09-21T08:24:24Z</time>
      </trkpt>
      <trkpt lat="47.28523" lon="4.99945">
        <ele>267</ele>
        <time>2017-09-21T08:24:35Z</time>
      </trkpt>
      <trkpt lat="47.28537" lon="4.9995">
        <ele>267</ele>
        <time>2017-09-21T08:24:46Z</time>
      </trkpt>
      <trkpt lat="47.28548" lon="4.99957">
        <ele>267</ele>
        <time>2017-09-21T08:24:57Z</time>
      </trkpt>
      <trkpt lat="47.28562" lon="4.99963">
        <ele>267</ele>
        <time>2017-09-21T08:25:08Z</time>
      </trkpt>
      <trkpt lat="47.28573" lon="4.9997">
        <ele>267</ele>
        <time>2017-09-21T08:25:19Z</time>
      </trkpt>
      <trkpt lat="47.28587" lon="4.99975">
        <ele>267</ele>
        <time>2017-09-21T08:25:30Z</time>
      </trkpt>
      <trkpt lat="47.28588" lon="4.99975">
        <ele>267</ele>
        <time>2017-09-21T08:25:41Z</time>
      </trkpt>
      <trkpt lat="47.28597" lon="4.9998">
        <ele>267</ele>
        <time>2017-09-21T08:25:52Z</time>
      </trkpt>
      <trkpt lat="47.2861" lon="4.99983">
        <ele>267</ele>
        <time>2017-09-21T08:26:03Z</time>
      </trkpt>
      <trkpt lat="47.2862" lon="4.99988">
        <ele>267</ele>
        <time>2017-09-21T08:26:14Z</time>
      </trkpt>
      <trkpt lat="47.28633" lon="4.99993">
        <ele>267</ele>
        <time>2017-09-21T08:26:25Z</time>
      </trkpt>
      <trkpt lat="47.28645" lon="5">
        <ele>267</ele>
        <time>2017-09-21T08:26:36Z</time>
      </trkpt>
      <trkpt lat="47.28657" lon="5.00007">
        <ele>266</ele>
        <time>2017-09-21T08:26:47Z</time>
      </trkpt>
      <trkpt lat="47.28665" lon="5.00013">
        <ele>266</ele>
        <time>2017-09-21T08:26:58Z</time>
      </trkpt>
      <trkpt lat="47.28668" lon="5.00017">
        <ele>266</ele>
        <time>2017-09-21T08:27:09Z</time>
      </trkpt>
      <trkpt lat="47.2868" lon="5.00023">
        <ele>266</ele>
        <time>2017-09-21T08:27:20Z</time>
      </trkpt>
      <trkpt lat="47.28687" lon="5.00028">
        <ele>266</ele>
        <time>2017-09-21T08:27:31Z</time>
      </trkpt>
      <trkpt lat="47.28695" lon="5.00035">
        <ele>266</ele>
        <time>2017-09-21T08:27:42Z</time>
      </trkpt>
      <trkpt lat="47.28705" lon="5.00043">
        <ele>266</ele>
        <time>2017-09-21T08:27:53Z</time>
      </trkpt>
      <trkpt lat="47.28717" lon="5.00052">
        <ele>265</ele>
        <time>2017-09-21T08:28:04Z</time>
      </trkpt>
      <trkpt lat="47.28728" lon="5.00058">
        <ele>265</ele>
        <time>2017-09-21T08:28:15Z</time>
      </trkpt>
      <trkpt lat="47.28742" lon="5.00065">
        <ele>265</ele>
        <time>2017-09-21T08:28:26Z</time>
      </trkpt>
      <trkpt lat="47.28753" lon="5.0007">
        <ele>264</ele>
        <time>2017-09-21T08:28:37Z</time>
      </trkpt>
      <trkpt lat="47.28765" lon="5.00072">
        <ele>264</ele>
        <time>2017-09-21T08:28:48Z</time>
      </trkpt>
      <trkpt lat="47.28778" lon="5.00075">
        <ele>264</ele>
        <time>2017-09-21T08:28:59Z</time>
      </trkpt>
      <trkpt lat="47.2879" lon="5.00078">
        <ele>264</ele>
        <time>2017-09-21T08:29:10Z</time>
      </trkpt>
      <trkpt lat="47.28803" lon="5.00082">
        <ele>264</ele>
        <time>2017-09-21T08:29:21Z</time>
      </trkpt>
      <trkpt lat="47.28818" lon="5.00085">
        <ele>264</ele>
        <time>2017-09-21T08:29:32Z</time>
      </trkpt>
      <trkpt lat="47.28832" lon="5.00087">
        <ele>264</ele>
        <time>2017-09-21T08:29:43Z</time>
      </trkpt>
      <trkpt lat="47.28845" lon="5.0009">
        <ele>264</ele>
        <time>2017-09-21T08:29:54Z</time>
      </trkpt>
      <trkpt lat="47.28857" lon="5.00092">
        <ele>264</ele>
        <time>2017-09-21T08:30:05Z</time>
      </trkpt>
      <trkpt lat="47.2887" lon="5.00095">
        <ele>264</ele>
        <time>2017-09-21T08:30:16Z</time>
      </trkpt>
      <trkpt lat="47.28883" lon="5.00098">
        <ele>264</ele>
        <time>2017-09-21T08:30:27Z</time>
      </trkpt>
      <trkpt lat="47.28897" lon="5.00102">
        <ele>264</ele>
        <time>2017-09-21T08:30:38Z</time>
      </trkpt>
      <trkpt lat="47.2891" lon="5.00107">
        <ele>264</ele>
        <time>2017-09-21T08:30:49Z</time>
      </trkpt>
      <trkpt lat="47.28922" lon="5.0011">
        <ele>265</ele>
        <time>2017-09-21T08:31:00Z</time>
      </trkpt>
      <trkpt lat="47.28933" lon="5.00115">
        <ele>265</ele>
        <time>2017-09-21T08:31:11Z</time>
      </trkpt>
      <trkpt lat="47.28945" lon="5.00122">
        <ele>266</ele>
        <time>2017-09-21T08:31:22Z</time>
      </trkpt>
      <trkpt lat="47.28958" lon="5.00127">
        <ele>266</ele>
        <time>2017-09-21T08:31:33Z</time>
      </trkpt>
      <trkpt lat="47.28968" lon="5.00132">
        <ele>266</ele>
        <time>2017-09-21T08:31:44Z</time>
      </trkpt>
      <trkpt lat="47.28978" lon="5.00137">
        <ele>266</ele>
        <time>2017-09-21T08:31:55Z</time>
      </trkpt>
      <trkpt lat="47.28988" lon="5.0014">
        <ele>266</ele>
        <time>2017-09-21T08:32:06Z</time>
      </trkpt>
      <trkpt lat="47.29" lon="5.00143">
        <ele>266</ele>
        <time>2017-09-21T08:32:17Z</time>
      </trkpt>
      <trkpt lat="47.29012" lon="5.0015">
        <ele>267</ele>
        <time>2017-09-21T08:32:28Z</time>
      </trkpt>
      <trkpt lat="47.2902" lon="5.00153">
        <ele>267</ele>
        <time>2017-09-21T08:32:39Z</time>
      </trkpt>
      <trkpt lat="47.29032" lon="5.00145">
        <ele>268</ele>
        <time>2017-09-21T08:32:50Z</time>
      </trkpt>
      <trkpt lat="47.2904" lon="5.00133">
        <ele>268</ele>
        <time>2017-09-21T08:33:01Z</time>
      </trkpt>
      <trkpt lat="47.29045" lon="5.00118">
        <ele>268</ele>
        <time>2017-09-21T08:33:12Z</time>
      </trkpt>
      <trkpt lat="47.29055" lon="5.00112">
        <ele>268</ele>
        <time>2017-09-21T08:33:23Z</time>
      </trkpt>
      <trkpt lat="47.2906" lon="5.00103">
        <ele>268</ele>
        <time>2017-09-21T08:33:34Z</time>
      </trkpt>
      <trkpt lat="47.29062" lon="5.0009">
        <ele>269</ele>
        <time>2017-09-21T08:33:45Z</time>
      </trkpt>
      <trkpt lat="47.29067" lon="5.00073">
        <ele>270</ele>
        <time>2017-09-21T08:33:56Z</time>
      </trkpt>
      <trkpt lat="47.2907" lon="5.00058">
        <ele>270</ele>
        <time>2017-09-21T08:34:07Z</time>
      </trkpt>
      <trkpt lat="47.29075" lon="5.00043">
        <ele>270</ele>
        <time>2017-09-21T08:34:18Z</time>
      </trkpt>
      <trkpt lat="47.29078" lon="5.00028">
        <ele>270</ele>
        <time>2017-09-21T08:34:29Z</time>
      </trkpt>
      <trkpt lat="47.2908" lon="5.00013">
        <ele>271</ele>
        <time>2017-09-21T08:34:40Z</time>
      </trkpt>
      <trkpt lat="47.29082" lon="4.99998">
        <ele>272</ele>
        <time>2017-09-21T08:34:51Z</time>
      </trkpt>
      <trkpt lat="47.29087" lon="4.99995">
        <ele>273</ele>
        <time>2017-09-21T08:35:02Z</time>
      </trkpt>
      <trkpt lat="47.29092" lon="4.9999">
        <ele>273</ele>
        <time>2017-09-21T08:35:13Z</time>
      </trkpt>
      <trkpt lat="47.29098" lon="4.99978">
        <ele>274</ele>
        <time>2017-09-21T08:35:24Z</time>
      </trkpt>
      <trkpt lat="47.29107" lon="4.99968">
        <ele>275</ele>
        <time>2017-09-21T08:35:35Z</time>
      </trkpt>
      <trkpt lat="47.29117" lon="4.9996">
        <ele>275</ele>
        <time>2017-09-21T08:35:46Z</time>
      </trkpt>
      <trkpt lat="47.29125" lon="4.99953">
        <ele>276</ele>
        <time>2017-09-21T08:35:57Z</time>
      </trkpt>
      <trkpt lat="47.2913" lon="4.99953">
        <ele>276</ele>
        <time>2017-09-21T08:36:08Z</time>
      </trkpt>
      <trkpt lat="47.29137" lon="4.99952">
        <ele>276</ele>
        <time>2017-09-21T08:36:19Z</time>
      </trkpt>
      <trkpt lat="47.29145" lon="4.99942">
        <ele>276</ele>
        <time>2017-09-21T08:36:30Z</time>
      </trkpt>
      <trkpt lat="47.29153" lon="4.99927">
        <ele>277</ele>
        <time>2017-09-21T08:36:41Z</time>
      </trkpt>
      <trkpt lat="47.29155" lon="4.9992">
        <ele>278</ele>
        <time>2017-09-21T08:36:52Z</time>
      </trkpt>
      <trkpt lat="47.29157" lon="4.99917">
        <ele>278</ele>
        <time>2017-09-21T08:37:03Z</time>
      </trkpt>
      <trkpt lat="47.2916" lon="4.99902">
        <ele>279</ele>
        <time>2017-09-21T08:37:14Z</time>
      </trkpt>
      <trkpt lat="47.29163" lon="4.99888">
        <ele>279</ele>
        <time>2017-09-21T08:37:25Z</time>
      </trkpt>
      <trkpt lat="47.29167" lon="4.99873">
        <ele>282</ele>
        <time>2017-09-21T08:37:36Z</time>
      </trkpt>
      <trkpt lat="47.29173" lon="4.99863">
        <ele>282</ele>
        <time>2017-09-21T08:37:47Z</time>
      </trkpt>
      <trkpt lat="47.2918" lon="4.99853">
        <ele>282</ele>
        <time>2017-09-21T08:37:58Z</time>
      </trkpt>
      <trkpt lat="47.29183" lon="4.99843">
        <ele>282</ele>
        <time>2017-09-21T08:38:09Z</time>
      </trkpt>
      <trkpt lat="47.29185" lon="4.99832">
        <ele>285</ele>
        <time>2017-09-21T08:38:20Z</time>
      </trkpt>
      <trkpt lat="47.2918" lon="4.99817">
        <ele>286</ele>
        <time>2017-09-21T08:38:31Z</time>
      </trkpt>
      <trkpt lat="47.29177" lon="4.9981">
        <ele>286</ele>
        <time>2017-09-21T08:38:42Z</time>
      </trkpt>
      <trkpt lat="47.29173" lon="4.998">
        <ele>287</ele>
        <time>2017-09-21T08:38:53Z</time>
      </trkpt>
      <trkpt lat="47.29175" lon="4.9979">
        <ele>288</ele>
        <time>2017-09-21T08:39:04Z</time>
      </trkpt>
      <trkpt lat="47.29178" lon="4.99783">
        <ele>289</ele>
        <time>2017-09-21T08:39:15Z</time>
      </trkpt>
      <trkpt lat="47.29187" lon="4.9978">
        <ele>289</ele>
        <time>2017-09-21T08:39:26Z</time>
      </trkpt>
      <trkpt lat="47.29193" lon="4.99777">
        <ele>289</ele>
        <time>2017-09-21T08:39:37Z</time>
      </trkpt>
      <trkpt lat="47.292" lon="4.99772">
        <ele>290</ele>
        <time>2017-09-21T08:39:48Z</time>
      </trkpt>
      <trkpt lat="47.29208" lon="4.99768">
        <ele>290</ele>
        <time>2017-09-21T08:39:59Z</time>
      </trkpt>
      <trkpt lat="47.29217" lon="4.9977">
        <ele>290</ele>
        <time>2017-09-21T08:40:10Z</time>
      </trkpt>
      <trkpt lat="47.29227" lon="4.99773">
        <ele>290</ele>
        <time>2017-09-21T08:40:21Z</time>
      </trkpt>
      <trkpt lat="47.29237" lon="4.99775">
        <ele>291</ele>
        <time>2017-09-21T08:40:32Z</time>
      </trkpt>
      <trkpt lat="47.29247" lon="4.99773">
        <ele>291</ele>
        <time>2017-09-21T08:40:43Z</time>
      </trkpt>
      <trkpt lat="47.29248" lon="4.99773">
        <ele>291</ele>
        <time>2017-09-21T08:40:54Z</time>
      </trkpt>
      <trkpt lat="47.29255" lon="4.99767">
        <ele>293</ele>
        <time>2017-09-21T08:41:05Z</time>
      </trkpt>
      <trkpt lat="47.2926" lon="4.99753">
        <ele>294</ele>
        <time>2017-09-21T08:41:16Z</time>
      </trkpt>
      <trkpt lat="47.29262" lon="4.9974">
        <ele>297</ele>
        <time>2017-09-21T08:41:27Z</time>
      </trkpt>
      <trkpt lat="47.29267" lon="4.99732">
        <ele>297</ele>
        <time>2017-09-21T08:41:38Z</time>
      </trkpt>
      <trkpt lat="47.29265" lon="4.99718">
        <ele>298</ele>
        <time>2017-09-21T08:41:49Z</time>
      </trkpt>
      <trkpt lat="47.2926" lon="4.99713">
        <ele>298</ele>
        <time>2017-09-21T08:42:00Z</time>
      </trkpt>
      <trkpt lat="47.29255" lon="4.99705">
        <ele>299</ele>
        <time>2017-09-21T08:42:11Z</time>
      </trkpt>
      <trkpt lat="47.29248" lon="4.99693">
        <ele>298</ele>
        <time>2017-09-21T08:42:22Z</time>
      </trkpt>
      <trkpt lat="47.2924" lon="4.99685">
        <ele>298</ele>
        <time>2017-09-21T08:42:33Z</time>
      </trkpt>
      <trkpt lat="47.29232" lon="4.99682">
        <ele>298</ele>
        <time>2017-09-21T08:42:44Z</time>
      </trkpt>
      <trkpt lat="47.29222" lon="4.99683">
        <ele>298</ele>
        <time>2017-09-21T08:42:55Z</time>
      </trkpt>
      <trkpt lat="47.29213" lon="4.99682">
        <ele>298</ele>
        <time>2017-09-21T08:43:06Z</time>
      </trkpt>
      <trkpt lat="47.29203" lon="4.99677">
        <ele>299</ele>
        <time>2017-09-21T08:43:17Z</time>
      </trkpt>
      <trkpt lat="47.29195" lon="4.99668">
        <ele>299</ele>
        <time>2017-09-21T08:43:28Z</time>
      </trkpt>
      <trkpt lat="47.29185" lon="4.99655">
        <ele>304</ele>
        <time>2017-09-21T08:43:39Z</time>
      </trkpt>
      <trkpt lat="47.29177" lon="4.99645">
        <ele>304</ele>
        <time>2017-09-21T08:43:50Z</time>
      </trkpt>
      <trkpt lat="47.2917" lon="4.99637">
        <ele>305</ele>
        <time>2017-09-21T08:44:01Z</time>
      </trkpt>
      <trkpt lat="47.29165" lon="4.99628">
        <ele>306</ele>
        <time>2017-09-21T08:44:12Z</time>
      </trkpt>
      <trkpt lat="47.29163" lon="4.99625">
        <ele>306</ele>
        <time>2017-09-21T08:44:23Z</time>
      </trkpt>
      <trkpt lat="47.29155" lon="4.99613">
        <ele>307</ele>
        <time>2017-09-21T08:44:34Z</time>
      </trkpt>
      <trkpt lat="47.29148" lon="4.99605">
        <ele>307</ele>
        <time>2017-09-21T08:44:45Z</time>
      </trkpt>
      <trkpt lat="47.29143" lon="4.99598">
        <ele>308</ele>
        <time>2017-09-21T08:44:56Z</time>
      </trkpt>
      <trkpt lat="47.29137" lon="4.99588">
        <ele>308</ele>
        <time>2017-09-21T08:45:07Z</time>
      </trkpt>
      <trkpt lat="47.2913" lon="4.99582">
        <ele>314</ele>
        <time>2017-09-21T08:45:18Z</time>
      </trkpt>
      <trkpt lat="47.29125" lon="4.9957">
        <ele>314</ele>
        <time>2017-09-21T08:45:29Z</time>
      </trkpt>
      <trkpt lat="47.29117" lon="4.9956">
        <ele>315</ele>
        <time>2017-09-21T08:45:40Z</time>
      </trkpt>
      <trkpt lat="47.2911" lon="4.9955">
        <ele>315</ele>
        <time>2017-09-21T08:45:51Z</time>
      </trkpt>
      <trkpt lat="47.29103" lon="4.99538">
        <ele>316</ele>
        <time>2017-09-21T08:46:02Z</time>
      </trkpt>
      <trkpt lat="47.29103" lon="4.99537">
        <ele>316</ele>
        <time>2017-09-21T08:46:13Z</time>
      </trkpt>
      <trkpt lat="47.29095" lon="4.99527">
        <ele>317</ele>
        <time>2017-09-21T08:46:24Z</time>
      </trkpt>
      <trkpt lat="47.29088" lon="4.99513">
        <ele>319</ele>
        <time>2017-09-21T08:46:35Z</time>
      </trkpt>
      <trkpt lat="47.29082" lon="4.995">
        <ele>322</ele>
        <time>2017-09-21T08:46:46Z</time>
      </trkpt>
      <trkpt lat="47.29078" lon="4.99483">
        <ele>323</ele>
        <time>2017-09-21T08:46:57Z</time>
      </trkpt>
      <trkpt lat="47.29073" lon="4.9947">
        <ele>324</ele>
        <time>2017-09-21T08:47:08Z</time>
      </trkpt>
      <trkpt lat="47.29073" lon="4.99457">
        <ele>324</ele>
        <time>2017-09-21T08:47:19Z</time>
      </trkpt>
      <trkpt lat="47.29072" lon="4.99445">
        <ele>325</ele>
        <time>2017-09-21T08:47:30Z</time>
      </trkpt>
      <trkpt lat="47.29072" lon="4.99435">
        <ele>326</ele>
        <time>2017-09-21T08:47:41Z</time>
      </trkpt>
      <trkpt lat="47.29073" lon="4.99418">
        <ele>327</ele>
        <time>2017-09-21T08:47:52Z</time>
      </trkpt>
      <trkpt lat="47.29073" lon="4.99407">
        <ele>328</ele>
        <time>2017-09-21T08:48:03Z</time>
      </trkpt>
      <trkpt lat="47.29077" lon="4.9939">
        <ele>329</ele>
        <time>2017-09-21T08:48:14Z</time>
      </trkpt>
      <trkpt lat="47.29078" lon="4.9938">
        <ele>329</ele>
        <time>2017-09-21T08:48:25Z</time>
      </trkpt>
      <trkpt lat="47.2908" lon="4.9937">
        <ele>329</ele>
        <time>2017-09-21T08:48:36Z</time>
      </trkpt>
      <trkpt lat="47.29082" lon="4.99357">
        <ele>330</ele>
        <time>2017-09-21T08:48:47Z</time>
      </trkpt>
      <trkpt lat="47.29083" lon="4.99343">
        <ele>330</ele>
        <time>2017-09-21T08:48:58Z</time>
      </trkpt>
      <trkpt lat="47.29085" lon="4.99332">
        <ele>331</ele>
        <time>2017-09-21T08:49:09Z</time>
      </trkpt>
      <trkpt lat="47.29088" lon="4.99318">
        <ele>332</ele>
        <time>2017-09-21T08:49:20Z</time>
      </trkpt>
      <trkpt lat="47.29093" lon="4.99303">
        <ele>333</ele>
        <time>2017-09-21T08:49:31Z</time>
      </trkpt>
      <trkpt lat="47.29097" lon="4.99292">
        <ele>333</ele>
        <time>2017-09-21T08:49:42Z</time>
      </trkpt>
      <trkpt lat="47.29098" lon="4.99277">
        <ele>334</ele>
        <time>2017-09-21T08:49:53Z</time>
      </trkpt>
      <trkpt lat="47.29102" lon="4.99262">
        <ele>335</ele>
        <time>2017-09-21T08:50:04Z</time>
      </trkpt>
      <trkpt lat="47.29103" lon="4.9925">
        <ele>339</ele>
        <time>2017-09-21T08:50:15Z</time>
      </trkpt>
      <trkpt lat="47.29103" lon="4.99238">
        <ele>339</ele>
        <time>2017-09-21T08:50:26Z</time>
      </trkpt>
      <trkpt lat="47.291" lon="4.99228">
        <ele>340</ele>
        <time>2017-09-21T08:50:37Z</time>
      </trkpt>
      <trkpt lat="47.29102" lon="4.99225">
        <ele>340</ele>
        <time>2017-09-21T08:50:48Z</time>
      </trkpt>
      <trkpt lat="47.29102" lon="4.99223">
        <ele>340</ele>
        <time>2017-09-21T08:52:39Z</time>
      </trkpt>
      <trkpt lat="47.29102" lon="4.99223">
        <ele>340</ele>
        <time>2017-09-21T08:52:39Z</time>
      </trkpt>
      <trkpt lat="47.29102" lon="4.99223">
        <ele>340</ele>
        <time>2017-09-21T08:52:39Z</time>
      </trkpt>
      <trkpt lat="47.29102" lon="4.99223">
        <ele>340</ele>
        <time>2017-09-21T08:52:39Z</time>
      </trkpt>
      <trkpt lat="47.29102" lon="4.99223">
        <ele>340</ele>
        <time>2017-09-21T08:52:39Z</time>
      </trkpt>
      <trkpt lat="47.29102" lon="4.99223">
        <ele>340</ele>
        <time>2017-09-21T08:52:39Z</time>
      </trkpt>
      <trkpt lat="47.29102" lon="4.99223">
        <ele>340</ele>
        <time>2017-09-21T08:52:39Z</time>
      </trkpt>
      <trkpt lat="47.29102" lon="4.99223">
        <ele>340</ele>
        <time>2017-09-21T08:52:39Z</time>
      </trkpt>
      <trkpt lat="47.29102" lon="4.99223">
        <ele>340</ele>
        <time>2017-09-21T08:52:39Z</time>
      </trkpt>
      <trkpt lat="47.29102" lon="4.99223">
        <ele>340</ele>
        <time>2017-09-21T08:52:39Z</time>
      </trkpt>
      <trkpt lat="47.291" lon="4.99218">
        <ele>340</ele>
        <time>2017-09-21T08:52:50Z</time>
      </trkpt>
      <trkpt lat="47.29098" lon="4.99208">
        <ele>341</ele>
        <time>2017-09-21T08:53:01Z</time>
      </trkpt>
      <trkpt lat="47.29093" lon="4.99197">
        <ele>342</ele>
        <time>2017-09-21T08:53:12Z</time>
      </trkpt>
      <trkpt lat="47.2909" lon="4.9919">
        <ele>342</ele>
        <time>2017-09-21T08:53:23Z</time>
      </trkpt>
      <trkpt lat="47.29087" lon="4.99178">
        <ele>343</ele>
        <time>2017-09-21T08:53:34Z</time>
      </trkpt>
      <trkpt lat="47.29083" lon="4.99167">
        <ele>344</ele>
        <time>2017-09-21T08:53:45Z</time>
      </trkpt>
      <trkpt lat="47.29078" lon="4.99157">
        <ele>344</ele>
        <time>2017-09-21T08:53:56Z</time>
      </trkpt>
      <trkpt lat="47.29073" lon="4.99143">
        <ele>344</ele>
        <time>2017-09-21T08:54:07Z</time>
      </trkpt>
      <trkpt lat="47.29068" lon="4.99132">
        <ele>344</ele>
        <time>2017-09-21T08:54:18Z</time>
      </trkpt>
      <trkpt lat="47.29063" lon="4.99117">
        <ele>345</ele>
        <time>2017-09-21T08:54:29Z</time>
      </trkpt>
      <trkpt lat="47.2906" lon="4.99102">
        <ele>345</ele>
        <time>2017-09-21T08:54:40Z</time>
      </trkpt>
      <trkpt lat="47.29055" lon="4.99088">
        <ele>345</ele>
        <time>2017-09-21T08:54:51Z</time>
      </trkpt>
      <trkpt lat="47.2905" lon="4.99073">
        <ele>349</ele>
        <time>2017-09-21T08:55:02Z</time>
      </trkpt>
      <trkpt lat="47.29048" lon="4.9906">
        <ele>349</ele>
        <time>2017-09-21T08:55:13Z</time>
      </trkpt>
      <trkpt lat="47.29048" lon="4.99045">
        <ele>350</ele>
        <time>2017-09-21T08:55:24Z</time>
      </trkpt>
      <trkpt lat="47.29048" lon="4.9903">
        <ele>351</ele>
        <time>2017-09-21T08:55:35Z</time>
      </trkpt>
      <trkpt lat="47.29048" lon="4.99015">
        <ele>351</ele>
        <time>2017-09-21T08:55:46Z</time>
      </trkpt>
      <trkpt lat="47.29048" lon="4.99005">
        <ele>351</ele>
        <time>2017-09-21T08:55:57Z</time>
      </trkpt>
      <trkpt lat="47.29045" lon="4.98992">
        <ele>355</ele>
        <time>2017-09-21T08:56:08Z</time>
      </trkpt>
      <trkpt lat="47.29045" lon="4.98977">
        <ele>356</ele>
        <time>2017-09-21T08:56:19Z</time>
      </trkpt>
      <trkpt lat="47.29042" lon="4.98963">
        <ele>356</ele>
        <time>2017-09-21T08:56:30Z</time>
      </trkpt>
      <trkpt lat="47.2904" lon="4.9895">
        <ele>356</ele>
        <time>2017-09-21T08:56:41Z</time>
      </trkpt>
      <trkpt lat="47.29037" lon="4.98937">
        <ele>357</ele>
        <time>2017-09-21T08:56:52Z</time>
      </trkpt>
      <trkpt lat="47.29035" lon="4.98925">
        <ele>357</ele>
        <time>2017-09-21T08:57:03Z</time>
      </trkpt>
      <trkpt lat="47.2903" lon="4.98912">
        <ele>360</ele>
        <time>2017-09-21T08:57:14Z</time>
      </trkpt>
      <trkpt lat="47.29025" lon="4.98898">
        <ele>360</ele>
        <time>2017-09-21T08:57:25Z</time>
      </trkpt>
      <trkpt lat="47.29022" lon="4.98885">
        <ele>360</ele>
        <time>2017-09-21T08:57:36Z</time>
      </trkpt>
      <trkpt lat="47.29017" lon="4.9887">
        <ele>361</ele>
        <time>2017-09-21T08:57:47Z</time>
      </trkpt>
      <trkpt lat="47.29012" lon="4.98855">
        <ele>361</ele>
        <time>2017-09-21T08:57:58Z</time>
      </trkpt>
      <trkpt lat="47.29007" lon="4.98842">
        <ele>362</ele>
        <time>2017-09-21T08:58:09Z</time>
      </trkpt>
      <trkpt lat="47.29003" lon="4.98827">
        <ele>363</ele>
        <time>2017-09-21T08:58:20Z</time>
      </trkpt>
      <trkpt lat="47.29002" lon="4.98817">
        <ele>364</ele>
        <time>2017-09-21T08:58:31Z</time>
      </trkpt>
      <trkpt lat="47.28998" lon="4.98803">
        <ele>363</ele>
        <time>2017-09-21T08:58:42Z</time>
      </trkpt>
      <trkpt lat="47.28995" lon="4.9879">
        <ele>363</ele>
        <time>2017-09-21T08:58:53Z</time>
      </trkpt>
      <trkpt lat="47.28992" lon="4.98773">
        <ele>364</ele>
        <time>2017-09-21T08:59:04Z</time>
      </trkpt>
      <trkpt lat="47.2899" lon="4.98758">
        <ele>366</ele>
        <time>2017-09-21T08:59:15Z</time>
      </trkpt>
      <trkpt lat="47.28988" lon="4.98742">
        <ele>367</ele>
        <time>2017-09-21T08:59:26Z</time>
      </trkpt>
      <trkpt lat="47.28987" lon="4.98725">
        <ele>367</ele>
        <time>2017-09-21T08:59:37Z</time>
      </trkpt>
      <trkpt lat="47.28987" lon="4.98712">
        <ele>367</ele>
        <time>2017-09-21T08:59:48Z</time>
      </trkpt>
      <trkpt lat="47.28985" lon="4.98692">
        <ele>367</ele>
        <time>2017-09-21T08:59:59Z</time>
      </trkpt>
      <trkpt lat="47.28987" lon="4.9868">
        <ele>368</ele>
        <time>2017-09-21T09:00:10Z</time>
      </trkpt>
      <trkpt lat="47.28987" lon="4.98668">
        <ele>368</ele>
        <time>2017-09-21T09:00:21Z</time>
      </trkpt>
      <trkpt lat="47.28985" lon="4.98653">
        <ele>369</ele>
        <time>2017-09-21T09:00:32Z</time>
      </trkpt>
      <trkpt lat="47.2898" lon="4.98645">
        <ele>369</ele>
        <time>2017-09-21T09:00:43Z</time>
      </trkpt>
      <trkpt lat="47.2897" lon="4.98637">
        <ele>369</ele>
        <time>2017-09-21T09:00:54Z</time>
      </trkpt>
      <trkpt lat="47.28962" lon="4.98628">
        <ele>369</ele>
        <time>2017-09-21T09:01:05Z</time>
      </trkpt>
      <trkpt lat="47.28953" lon="4.9862">
        <ele>369</ele>
        <time>2017-09-21T09:01:16Z</time>
      </trkpt>
      <trkpt lat="47.28943" lon="4.98615">
        <ele>369</ele>
        <time>2017-09-21T09:01:27Z</time>
      </trkpt>
      <trkpt lat="47.28933" lon="4.98608">
        <ele>368</ele>
        <time>2017-09-21T09:01:38Z</time>
      </trkpt>
      <trkpt lat="47.28925" lon="4.98602">
        <ele>368</ele>
        <time>2017-09-21T09:01:49Z</time>
      </trkpt>
      <trkpt lat="47.28913" lon="4.98597">
        <ele>367</ele>
        <time>2017-09-21T09:02:00Z</time>
      </trkpt>
      <trkpt lat="47.28903" lon="4.98592">
        <ele>366</ele>
        <time>2017-09-21T09:02:11Z</time>
      </trkpt>
      <trkpt lat="47.28893" lon="4.98588">
        <ele>366</ele>
        <time>2017-09-21T09:02:22Z</time>
      </trkpt>
      <trkpt lat="47.28887" lon="4.98587">
        <ele>366</ele>
        <time>2017-09-21T09:02:33Z</time>
      </trkpt>
      <trkpt lat="47.28883" lon="4.98585">
        <ele>366</ele>
        <time>2017-09-21T09:02:44Z</time>
      </trkpt>
      <trkpt lat="47.28878" lon="4.98585">
        <ele>365</ele>
        <time>2017-09-21T09:02:55Z</time>
      </trkpt>
      <trkpt lat="47.28872" lon="4.98583">
        <ele>366</ele>
        <time>2017-09-21T09:03:06Z</time>
      </trkpt>
      <trkpt lat="47.2887" lon="4.98583">
        <ele>366</ele>
        <time>2017-09-21T09:03:17Z</time>
      </trkpt>
      <trkpt lat="47.28857" lon="4.98585">
        <ele>365</ele>
        <time>2017-09-21T09:03:28Z</time>
      </trkpt>
      <trkpt lat="47.28848" lon="4.98585">
        <ele>364</ele>
        <time>2017-09-21T09:03:39Z</time>
      </trkpt>
      <trkpt lat="47.28842" lon="4.98587">
        <ele>364</ele>
        <time>2017-09-21T09:03:50Z</time>
      </trkpt>
      <trkpt lat="47.2883" lon="4.98588">
        <ele>363</ele>
        <time>2017-09-21T09:04:01Z</time>
      </trkpt>
      <trkpt lat="47.2882" lon="4.98588">
        <ele>362</ele>
        <time>2017-09-21T09:04:12Z</time>
      </trkpt>
      <trkpt lat="47.2881" lon="4.98593">
        <ele>361</ele>
        <time>2017-09-21T09:04:23Z</time>
      </trkpt>
      <trkpt lat="47.288" lon="4.98597">
        <ele>360</ele>
        <time>2017-09-21T09:04:34Z</time>
      </trkpt>
      <trkpt lat="47.28793" lon="4.98602">
        <ele>360</ele>
        <time>2017-09-21T09:04:45Z</time>
      </trkpt>
      <trkpt lat="47.28785" lon="4.98607">
        <ele>359</ele>
        <time>2017-09-21T09:04:56Z</time>
      </trkpt>
      <trkpt lat="47.2878" lon="4.98613">
        <ele>359</ele>
        <time>2017-09-21T09:05:07Z</time>
      </trkpt>
      <trkpt lat="47.28775" lon="4.98617">
        <ele>359</ele>
        <time>2017-09-21T09:05:18Z</time>
      </trkpt>
      <trkpt lat="47.28765" lon="4.98623">
        <ele>358</ele>
        <time>2017-09-21T09:05:29Z</time>
      </trkpt>
      <trkpt lat="47.28757" lon="4.98627">
        <ele>358</ele>
        <time>2017-09-21T09:05:40Z</time>
      </trkpt>
      <trkpt lat="47.28752" lon="4.98628">
        <ele>358</ele>
        <time>2017-09-21T09:05:51Z</time>
      </trkpt>
      <trkpt lat="47.2874" lon="4.98632">
        <ele>352</ele>
        <time>2017-09-21T09:06:02Z</time>
      </trkpt>
      <trkpt lat="47.2873" lon="4.98637">
        <ele>352</ele>
        <time>2017-09-21T09:06:13Z</time>
      </trkpt>
      <trkpt lat="47.28718" lon="4.98643">
        <ele>351</ele>
        <time>2017-09-21T09:06:24Z</time>
      </trkpt>
      <trkpt lat="47.28707" lon="4.98648">
        <ele>350</ele>
        <time>2017-09-21T09:06:35Z</time>
      </trkpt>
      <trkpt lat="47.287" lon="4.98653">
        <ele>349</ele>
        <time>2017-09-21T09:06:46Z</time>
      </trkpt>
      <trkpt lat="47.28688" lon="4.9866">
        <ele>348</ele>
        <time>2017-09-21T09:06:57Z</time>
      </trkpt>
      <trkpt lat="47.2868" lon="4.98663">
        <ele>347</ele>
        <time>2017-09-21T09:07:08Z</time>
      </trkpt>
      <trkpt lat="47.28672" lon="4.98667">
        <ele>345</ele>
        <time>2017-09-21T09:07:19Z</time>
      </trkpt>
      <trkpt lat="47.28662" lon="4.98668">
        <ele>343</ele>
        <time>2017-09-21T09:07:30Z</time>
      </trkpt>
      <trkpt lat="47.28653" lon="4.9867">
        <ele>343</ele>
        <time>2017-09-21T09:07:41Z</time>
      </trkpt>
      <trkpt lat="47.28642" lon="4.9867">
        <ele>342</ele>
        <time>2017-09-21T09:07:52Z</time>
      </trkpt>
      <trkpt lat="47.2863" lon="4.9867">
        <ele>341</ele>
        <time>2017-09-21T09:08:03Z</time>
      </trkpt>
      <trkpt lat="47.28625" lon="4.9867">
        <ele>340</ele>
        <time>2017-09-21T09:08:14Z</time>
      </trkpt>
      <trkpt lat="47.28617" lon="4.98665">
        <ele>340</ele>
        <time>2017-09-21T09:08:25Z</time>
      </trkpt>
      <trkpt lat="47.28605" lon="4.98663">
        <ele>339</ele>
        <time>2017-09-21T09:08:36Z</time>
      </trkpt>
      <trkpt lat="47.286" lon="4.98658">
        <ele>338</ele>
        <time>2017-09-21T09:08:47Z</time>
      </trkpt>
      <trkpt lat="47.28592" lon="4.98657">
        <ele>338</ele>
        <time>2017-09-21T09:08:58Z</time>
      </trkpt>
      <trkpt lat="47.28585" lon="4.98655">
        <ele>337</ele>
        <time>2017-09-21T09:09:09Z</time>
      </trkpt>
      <trkpt lat="47.28575" lon="4.98652">
        <ele>334</ele>
        <time>2017-09-21T09:09:20Z</time>
      </trkpt>
      <trkpt lat="47.28565" lon="4.98648">
        <ele>334</ele>
        <time>2017-09-21T09:09:31Z</time>
      </trkpt>
      <trkpt lat="47.28558" lon="4.98645">
        <ele>333</ele>
        <time>2017-09-21T09:09:42Z</time>
      </trkpt>
      <trkpt lat="47.28553" lon="4.98642">
        <ele>333</ele>
        <time>2017-09-21T09:09:53Z</time>
      </trkpt>
      <trkpt lat="47.2855" lon="4.98638">
        <ele>333</ele>
        <time>2017-09-21T09:11:21Z</time>
      </trkpt>
      <trkpt lat="47.2855" lon="4.98638">
        <ele>333</ele>
        <time>2017-09-21T09:11:21Z</time>
      </trkpt>
      <trkpt lat="47.2855" lon="4.98638">
        <ele>333</ele>
        <time>2017-09-21T09:11:21Z</time>
      </trkpt>
      <trkpt lat="47.2855" lon="4.98638">
        <ele>333</ele>
        <time>2017-09-21T09:11:21Z</time>
      </trkpt>
      <trkpt lat="47.2855" lon="4.98638">
        <ele>333</ele>
        <time>2017-09-21T09:11:21Z</time>
      </trkpt>
      <trkpt lat="47.2855" lon="4.98638">
        <ele>333</ele>
        <time>2017-09-21T09:11:21Z</time>
      </trkpt>
      <trkpt lat="47.2855" lon="4.98638">
        <ele>333</ele>
        <time>2017-09-21T09:11:21Z</time>
      </trkpt>
      <trkpt lat="47.2855" lon="4.98638">
        <ele>333</ele>
        <time>2017-09-21T09:11:21Z</time>
      </trkpt>
      <trkpt lat="47.2855" lon="4.98637">
        <ele>333</ele>
        <time>2017-09-21T09:11:32Z</time>
      </trkpt>
      <trkpt lat="47.28547" lon="4.98635">
        <ele>333</ele>
        <time>2017-09-21T09:11:43Z</time>
      </trkpt>
      <trkpt lat="47.28538" lon="4.9863">
        <ele>332</ele>
        <time>2017-09-21T09:11:54Z</time>
      </trkpt>
      <trkpt lat="47.28533" lon="4.98628">
        <ele>332</ele>
        <time>2017-09-21T09:12:05Z</time>
      </trkpt>
      <trkpt lat="47.28523" lon="4.98627">
        <ele>332</ele>
        <time>2017-09-21T09:12:16Z</time>
      </trkpt>
      <trkpt lat="47.28517" lon="4.98623">
        <ele>332</ele>
        <time>2017-09-21T09:12:27Z</time>
      </trkpt>
      <trkpt lat="47.28507" lon="4.9862">
        <ele>332</ele>
        <time>2017-09-21T09:12:38Z</time>
      </trkpt>
      <trkpt lat="47.28505" lon="4.98618">
        <ele>331</ele>
        <time>2017-09-21T09:12:49Z</time>
      </trkpt>
      <trkpt lat="47.28495" lon="4.9862">
        <ele>326</ele>
        <time>2017-09-21T09:13:00Z</time>
      </trkpt>
      <trkpt lat="47.28493" lon="4.98618">
        <ele>326</ele>
        <time>2017-09-21T09:13:11Z</time>
      </trkpt>
      <trkpt lat="47.28483" lon="4.98623">
        <ele>325</ele>
        <time>2017-09-21T09:13:22Z</time>
      </trkpt>
      <trkpt lat="47.28477" lon="4.98627">
        <ele>325</ele>
        <time>2017-09-21T09:13:33Z</time>
      </trkpt>
      <trkpt lat="47.28473" lon="4.98628">
        <ele>325</ele>
        <time>2017-09-21T09:13:44Z</time>
      </trkpt>
      <trkpt lat="47.28462" lon="4.98633">
        <ele>324</ele>
        <time>2017-09-21T09:13:55Z</time>
      </trkpt>
      <trkpt lat="47.28452" lon="4.98638">
        <ele>323</ele>
        <time>2017-09-21T09:14:06Z</time>
      </trkpt>
      <trkpt lat="47.28445" lon="4.98642">
        <ele>323</ele>
        <time>2017-09-21T09:14:17Z</time>
      </trkpt>
      <trkpt lat="47.28435" lon="4.98645">
        <ele>322</ele>
        <time>2017-09-21T09:14:28Z</time>
      </trkpt>
      <trkpt lat="47.28428" lon="4.98643">
        <ele>321</ele>
        <time>2017-09-21T09:14:39Z</time>
      </trkpt>
      <trkpt lat="47.28415" lon="4.98642">
        <ele>314</ele>
        <time>2017-09-21T09:14:50Z</time>
      </trkpt>
      <trkpt lat="47.28407" lon="4.98643">
        <ele>313</ele>
        <time>2017-09-21T09:15:01Z</time>
      </trkpt>
      <trkpt lat="47.28393" lon="4.98642">
        <ele>312</ele>
        <time>2017-09-21T09:15:12Z</time>
      </trkpt>
      <trkpt lat="47.28378" lon="4.9864">
        <ele>311</ele>
        <time>2017-09-21T09:15:23Z</time>
      </trkpt>
      <trkpt lat="47.2837" lon="4.9864">
        <ele>310</ele>
        <time>2017-09-21T09:15:34Z</time>
      </trkpt>
      <trkpt lat="47.28357" lon="4.9864">
        <ele>309</ele>
        <time>2017-09-21T09:15:45Z</time>
      </trkpt>
      <trkpt lat="47.28345" lon="4.98643">
        <ele>308</ele>
        <time>2017-09-21T09:15:56Z</time>
      </trkpt>
      <trkpt lat="47.28337" lon="4.98647">
        <ele>307</ele>
        <time>2017-09-21T09:16:07Z</time>
      </trkpt>
      <trkpt lat="47.28327" lon="4.98648">
        <ele>302</ele>
        <time>2017-09-21T09:16:18Z</time>
      </trkpt>
      <trkpt lat="47.28315" lon="4.98653">
        <ele>301</ele>
        <time>2017-09-21T09:16:29Z</time>
      </trkpt>
      <trkpt lat="47.28303" lon="4.98653">
        <ele>300</ele>
        <time>2017-09-21T09:16:40Z</time>
      </trkpt>
      <trkpt lat="47.2829" lon="4.98655">
        <ele>299</ele>
        <time>2017-09-21T09:16:51Z</time>
      </trkpt>
      <trkpt lat="47.28277" lon="4.98657">
        <ele>298</ele>
        <time>2017-09-21T09:17:02Z</time>
      </trkpt>
      <trkpt lat="47.28268" lon="4.98658">
        <ele>297</ele>
        <time>2017-09-21T09:17:13Z</time>
      </trkpt>
      <trkpt lat="47.28258" lon="4.9866">
        <ele>296</ele>
        <time>2017-09-21T09:17:24Z</time>
      </trkpt>
      <trkpt lat="47.28248" lon="4.9866">
        <ele>294</ele>
        <time>2017-09-21T09:17:35Z</time>
      </trkpt>
      <trkpt lat="47.28245" lon="4.9866">
        <ele>294</ele>
        <time>2017-09-21T09:17:57Z</time>
      </trkpt>
      <trkpt lat="47.28245" lon="4.9866">
        <ele>294</ele>
        <time>2017-09-21T09:17:57Z</time>
      </trkpt>
      <trkpt lat="47.28235" lon="4.98658">
        <ele>293</ele>
        <time>2017-09-21T09:18:08Z</time>
      </trkpt>
      <trkpt lat="47.28223" lon="4.98658">
        <ele>293</ele>
        <time>2017-09-21T09:18:19Z</time>
      </trkpt>
      <trkpt lat="47.28218" lon="4.98655">
        <ele>293</ele>
        <time>2017-09-21T09:18:30Z</time>
      </trkpt>
      <trkpt lat="47.28215" lon="4.98648">
        <ele>292</ele>
        <time>2017-09-21T09:18:41Z</time>
      </trkpt>
      <trkpt lat="47.28213" lon="4.98648">
        <ele>292</ele>
        <time>2017-09-21T09:18:52Z</time>
      </trkpt>
      <trkpt lat="47.28202" lon="4.98642">
        <ele>292</ele>
        <time>2017-09-21T09:19:03Z</time>
      </trkpt>
      <trkpt lat="47.28193" lon="4.98635">
        <ele>292</ele>
        <time>2017-09-21T09:19:14Z</time>
      </trkpt>
      <trkpt lat="47.28185" lon="4.98632">
        <ele>292</ele>
        <time>2017-09-21T09:19:58Z</time>
      </trkpt>
      <trkpt lat="47.28185" lon="4.98632">
        <ele>292</ele>
        <time>2017-09-21T09:19:58Z</time>
      </trkpt>
      <trkpt lat="47.28185" lon="4.98632">
        <ele>292</ele>
        <time>2017-09-21T09:19:58Z</time>
      </trkpt>
      <trkpt lat="47.28185" lon="4.98632">
        <ele>292</ele>
        <time>2017-09-21T09:19:58Z</time>
      </trkpt>
      <trkpt lat="47.28182" lon="4.9863">
        <ele>292</ele>
        <time>2017-09-21T09:20:20Z</time>
      </trkpt>
      <trkpt lat="47.28182" lon="4.9863">
        <ele>292</ele>
        <time>2017-09-21T09:20:20Z</time>
      </trkpt>
      <trkpt lat="47.2818" lon="4.98628">
        <ele>292</ele>
        <time>2017-09-21T09:20:31Z</time>
      </trkpt>
      <trkpt lat="47.28177" lon="4.98627">
        <ele>292</ele>
        <time>2017-09-21T09:20:42Z</time>
      </trkpt>
      <trkpt lat="47.28167" lon="4.9862">
        <ele>291</ele>
        <time>2017-09-21T09:20:53Z</time>
      </trkpt>
      <trkpt lat="47.28162" lon="4.98615">
        <ele>289</ele>
        <time>2017-09-21T09:21:04Z</time>
      </trkpt>
      <trkpt lat="47.28153" lon="4.98608">
        <ele>289</ele>
        <time>2017-09-21T09:21:15Z</time>
      </trkpt>
      <trkpt lat="47.28142" lon="4.98607">
        <ele>289</ele>
        <time>2017-09-21T09:21:26Z</time>
      </trkpt>
      <trkpt lat="47.28133" lon="4.98612">
        <ele>288</ele>
        <time>2017-09-21T09:21:37Z</time>
      </trkpt>
      <trkpt lat="47.28123" lon="4.98623">
        <ele>288</ele>
        <time>2017-09-21T09:21:48Z</time>
      </trkpt>
      <trkpt lat="47.28117" lon="4.98632">
        <ele>288</ele>
        <time>2017-09-21T09:21:59Z</time>
      </trkpt>
      <trkpt lat="47.28112" lon="4.98638">
        <ele>288</ele>
        <time>2017-09-21T09:22:10Z</time>
      </trkpt>
      <trkpt lat="47.28105" lon="4.98648">
        <ele>287</ele>
        <time>2017-09-21T09:22:21Z</time>
      </trkpt>
      <trkpt lat="47.28097" lon="4.9866">
        <ele>286</ele>
        <time>2017-09-21T09:22:32Z</time>
      </trkpt>
      <trkpt lat="47.28088" lon="4.98673">
        <ele>286</ele>
        <time>2017-09-21T09:22:43Z</time>
      </trkpt>
      <trkpt lat="47.2808" lon="4.98687">
        <ele>285</ele>
        <time>2017-09-21T09:22:54Z</time>
      </trkpt>
      <trkpt lat="47.28073" lon="4.98698">
        <ele>285</ele>
        <time>2017-09-21T09:23:05Z</time>
      </trkpt>
      <trkpt lat="47.28065" lon="4.98712">
        <ele>285</ele>
        <time>2017-09-21T09:23:16Z</time>
      </trkpt>
      <trkpt lat="47.28057" lon="4.98725">
        <ele>285</ele>
        <time>2017-09-21T09:23:27Z</time>
      </trkpt>
      <trkpt lat="47.28048" lon="4.98738">
        <ele>285</ele>
        <time>2017-09-21T09:23:38Z</time>
      </trkpt>
      <trkpt lat="47.28042" lon="4.9875">
        <ele>285</ele>
        <time>2017-09-21T09:23:49Z</time>
      </trkpt>
      <trkpt lat="47.28033" lon="4.98762">
        <ele>284</ele>
        <time>2017-09-21T09:24:00Z</time>
      </trkpt>
      <trkpt lat="47.28023" lon="4.98772">
        <ele>284</ele>
        <time>2017-09-21T09:24:11Z</time>
      </trkpt>
      <trkpt lat="47.28015" lon="4.98783">
        <ele>284</ele>
        <time>2017-09-21T09:24:22Z</time>
      </trkpt>
      <trkpt lat="47.28007" lon="4.98795">
        <ele>284</ele>
        <time>2017-09-21T09:24:33Z</time>
      </trkpt>
      <trkpt lat="47.27995" lon="4.98807">
        <ele>282</ele>
        <time>2017-09-21T09:24:44Z</time>
      </trkpt>
      <trkpt lat="47.27985" lon="4.98817">
        <ele>282</ele>
        <time>2017-09-21T09:24:55Z</time>
      </trkpt>
      <trkpt lat="47.27975" lon="4.9883">
        <ele>282</ele>
        <time>2017-09-21T09:25:06Z</time>
      </trkpt>
      <trkpt lat="47.27965" lon="4.98842">
        <ele>281</ele>
        <time>2017-09-21T09:25:17Z</time>
      </trkpt>
      <trkpt lat="47.27958" lon="4.98853">
        <ele>280</ele>
        <time>2017-09-21T09:25:28Z</time>
      </trkpt>
      <trkpt lat="47.2795" lon="4.98865">
        <ele>280</ele>
        <time>2017-09-21T09:25:39Z</time>
      </trkpt>
      <trkpt lat="47.27943" lon="4.98878">
        <ele>280</ele>
        <time>2017-09-21T09:25:50Z</time>
      </trkpt>
      <trkpt lat="47.27935" lon="4.98893">
        <ele>280</ele>
        <time>2017-09-21T09:26:01Z</time>
      </trkpt>
      <trkpt lat="47.2793" lon="4.98907">
        <ele>280</ele>
        <time>2017-09-21T09:26:12Z</time>
      </trkpt>
      <trkpt lat="47.27927" lon="4.98923">
        <ele>279</ele>
        <time>2017-09-21T09:26:23Z</time>
      </trkpt>
      <trkpt lat="47.27925" lon="4.98938">
        <ele>280</ele>
        <time>2017-09-21T09:26:34Z</time>
      </trkpt>
      <trkpt lat="47.27923" lon="4.98953">
        <ele>280</ele>
        <time>2017-09-21T09:26:45Z</time>
      </trkpt>
      <trkpt lat="47.2792" lon="4.9897">
        <ele>280</ele>
        <time>2017-09-21T09:26:56Z</time>
      </trkpt>
      <trkpt lat="47.27918" lon="4.98985">
        <ele>281</ele>
        <time>2017-09-21T09:27:07Z</time>
      </trkpt>
      <trkpt lat="47.27918" lon="4.99003">
        <ele>281</ele>
        <time>2017-09-21T09:27:18Z</time>
      </trkpt>
      <trkpt lat="47.27922" lon="4.99018">
        <ele>281</ele>
        <time>2017-09-21T09:27:29Z</time>
      </trkpt>
      <trkpt lat="47.27925" lon="4.99035">
        <ele>281</ele>
        <time>2017-09-21T09:27:40Z</time>
      </trkpt>
      <trkpt lat="47.2793" lon="4.99052">
        <ele>281</ele>
        <time>2017-09-21T09:27:51Z</time>
      </trkpt>
      <trkpt lat="47.27937" lon="4.99067">
        <ele>281</ele>
        <time>2017-09-21T09:28:02Z</time>
      </trkpt>
      <trkpt lat="47.27942" lon="4.99083">
        <ele>281</ele>
        <time>2017-09-21T09:28:13Z</time>
      </trkpt>
      <trkpt lat="47.2795" lon="4.99093">
        <ele>280</ele>
        <time>2017-09-21T09:28:24Z</time>
      </trkpt>
      <trkpt lat="47.27958" lon="4.99088">
        <ele>280</ele>
        <time>2017-09-21T09:28:35Z</time>
      </trkpt>
      <trkpt lat="47.27968" lon="4.99077">
        <ele>280</ele>
        <time>2017-09-21T09:28:46Z</time>
      </trkpt>
      <trkpt lat="47.27975" lon="4.99068">
        <ele>280</ele>
        <time>2017-09-21T09:28:57Z</time>
      </trkpt>
      <trkpt lat="47.27982" lon="4.99075">
        <ele>280</ele>
        <time>2017-09-21T09:29:08Z</time>
      </trkpt>
      <trkpt lat="47.27988" lon="4.99088">
        <ele>280</ele>
        <time>2017-09-21T09:29:19Z</time>
      </trkpt>
      <trkpt lat="47.27995" lon="4.99103">
        <ele>280</ele>
        <time>2017-09-21T09:29:30Z</time>
      </trkpt>
      <trkpt lat="47.28" lon="4.99117">
        <ele>280</ele>
        <time>2017-09-21T09:29:41Z</time>
      </trkpt>
      <trkpt lat="47.28007" lon="4.99132">
        <ele>280</ele>
        <time>2017-09-21T09:29:52Z</time>
      </trkpt>
      <trkpt lat="47.28013" lon="4.99148">
        <ele>280</ele>
        <time>2017-09-21T09:30:03Z</time>
      </trkpt>
      <trkpt lat="47.28018" lon="4.99163">
        <ele>280</ele>
        <time>2017-09-21T09:30:14Z</time>
      </trkpt>
      <trkpt lat="47.28025" lon="4.9918">
        <ele>279</ele>
        <time>2017-09-21T09:30:25Z</time>
      </trkpt>
      <trkpt lat="47.28028" lon="4.99197">
        <ele>279</ele>
        <time>2017-09-21T09:30:36Z</time>
      </trkpt>
      <trkpt lat="47.28033" lon="4.99213">
        <ele>279</ele>
        <time>2017-09-21T09:30:47Z</time>
      </trkpt>
      <trkpt lat="47.28037" lon="4.99232">
        <ele>279</ele>
        <time>2017-09-21T09:30:58Z</time>
      </trkpt>
      <trkpt lat="47.2804" lon="4.9925">
        <ele>278</ele>
        <time>2017-09-21T09:31:09Z</time>
      </trkpt>
      <trkpt lat="47.28043" lon="4.99265">
        <ele>277</ele>
        <time>2017-09-21T09:31:20Z</time>
      </trkpt>
      <trkpt lat="47.2805" lon="4.9928">
        <ele>277</ele>
        <time>2017-09-21T09:31:31Z</time>
      </trkpt>
      <trkpt lat="47.28055" lon="4.99293">
        <ele>277</ele>
        <time>2017-09-21T09:31:42Z</time>
      </trkpt>
      <trkpt lat="47.28062" lon="4.99308">
        <ele>277</ele>
        <time>2017-09-21T09:31:53Z</time>
      </trkpt>
      <trkpt lat="47.28068" lon="4.99323">
        <ele>276</ele>
        <time>2017-09-21T09:32:04Z</time>
      </trkpt>
      <trkpt lat="47.28075" lon="4.99342">
        <ele>276</ele>
        <time>2017-09-21T09:32:15Z</time>
      </trkpt>
      <trkpt lat="47.28077" lon="4.99345">
        <ele>276</ele>
        <time>2017-09-21T09:32:26Z</time>
      </trkpt>
      <trkpt lat="47.28078" lon="4.99355">
        <ele>276</ele>
        <time>2017-09-21T09:32:37Z</time>
      </trkpt>
      <trkpt lat="47.28083" lon="4.99373">
        <ele>275</ele>
        <time>2017-09-21T09:32:48Z</time>
      </trkpt>
      <trkpt lat="47.28088" lon="4.9939">
        <ele>275</ele>
        <time>2017-09-21T09:32:59Z</time>
      </trkpt>
      <trkpt lat="47.28093" lon="4.9941">
        <ele>275</ele>
        <time>2017-09-21T09:33:10Z</time>
      </trkpt>
      <trkpt lat="47.28098" lon="4.99428">
        <ele>275</ele>
        <time>2017-09-21T09:33:21Z</time>
      </trkpt>
      <trkpt lat="47.28103" lon="4.99447">
        <ele>274</ele>
        <time>2017-09-21T09:33:32Z</time>
      </trkpt>
      <trkpt lat="47.28107" lon="4.9946">
        <ele>274</ele>
        <time>2017-09-21T09:33:43Z</time>
      </trkpt>
      <trkpt lat="47.2811" lon="4.99465">
        <ele>274</ele>
        <time>2017-09-21T09:33:54Z</time>
      </trkpt>
      <trkpt lat="47.28117" lon="4.99482">
        <ele>274</ele>
        <time>2017-09-21T09:34:05Z</time>
      </trkpt>
      <trkpt lat="47.28122" lon="4.99495">
        <ele>274</ele>
        <time>2017-09-21T09:34:16Z</time>
      </trkpt>
      <trkpt lat="47.28127" lon="4.99513">
        <ele>273</ele>
        <time>2017-09-21T09:34:27Z</time>
      </trkpt>
      <trkpt lat="47.28132" lon="4.99528">
        <ele>273</ele>
        <time>2017-09-21T09:34:38Z</time>
      </trkpt>
      <trkpt lat="47.28138" lon="4.99545">
        <ele>273</ele>
        <time>2017-09-21T09:34:49Z</time>
      </trkpt>
      <trkpt lat="47.28147" lon="4.99562">
        <ele>273</ele>
        <time>2017-09-21T09:35:00Z</time>
      </trkpt>
      <trkpt lat="47.28153" lon="4.99578">
        <ele>273</ele>
        <time>2017-09-21T09:35:11Z</time>
      </trkpt>
      <trkpt lat="47.28162" lon="4.99593">
        <ele>272</ele>
        <time>2017-09-21T09:35:22Z</time>
      </trkpt>
      <trkpt lat="47.28172" lon="4.99608">
        <ele>271</ele>
        <time>2017-09-21T09:35:33Z</time>
      </trkpt>
      <trkpt lat="47.28182" lon="4.99622">
        <ele>271</ele>
        <time>2017-09-21T09:35:44Z</time>
      </trkpt>
      <trkpt lat="47.28187" lon="4.99627">
        <ele>271</ele>
        <time>2017-09-21T09:35:55Z</time>
      </trkpt>
      <trkpt lat="47.28197" lon="4.99638">
        <ele>271</ele>
        <time>2017-09-21T09:36:06Z</time>
      </trkpt>
      <trkpt lat="47.28203" lon="4.99652">
        <ele>271</ele>
        <time>2017-09-21T09:36:17Z</time>
      </trkpt>
      <trkpt lat="47.28207" lon="4.99655">
        <ele>271</ele>
        <time>2017-09-21T09:36:28Z</time>
      </trkpt>
      <trkpt lat="47.28213" lon="4.99665">
        <ele>271</ele>
        <time>2017-09-21T09:36:39Z</time>
      </trkpt>
      <trkpt lat="47.28222" lon="4.9968">
        <ele>270</ele>
        <time>2017-09-21T09:36:50Z</time>
      </trkpt>
      <trkpt lat="47.28227" lon="4.9969">
        <ele>270</ele>
        <time>2017-09-21T09:37:01Z</time>
      </trkpt>
      <trkpt lat="47.28233" lon="4.99703">
        <ele>270</ele>
        <time>2017-09-21T09:37:12Z</time>
      </trkpt>
      <trkpt lat="47.28242" lon="4.9972">
        <ele>270</ele>
        <time>2017-09-21T09:37:23Z</time>
      </trkpt>
      <trkpt lat="47.28247" lon="4.99735">
        <ele>269</ele>
        <time>2017-09-21T09:37:34Z</time>
      </trkpt>
      <trkpt lat="47.28255" lon="4.99748">
        <ele>269</ele>
        <time>2017-09-21T09:37:45Z</time>
      </trkpt>
      <trkpt lat="47.28263" lon="4.99762">
        <ele>269</ele>
        <time>2017-09-21T09:37:56Z</time>
      </trkpt>
      <trkpt lat="47.28272" lon="4.99773">
        <ele>268</ele>
        <time>2017-09-21T09:38:07Z</time>
      </trkpt>
      <trkpt lat="47.28273" lon="4.99773">
        <ele>268</ele>
        <time>2017-09-21T09:38:18Z</time>
      </trkpt>
      <trkpt lat="47.28282" lon="4.99783">
        <ele>268</ele>
        <time>2017-09-21T09:38:29Z</time>
      </trkpt>
      <trkpt lat="47.28287" lon="4.9979">
        <ele>268</ele>
        <time>2017-09-21T09:38:40Z</time>
      </trkpt>
      <trkpt lat="47.28292" lon="4.99802">
        <ele>268</ele>
        <time>2017-09-21T09:38:51Z</time>
      </trkpt>
      <trkpt lat="47.28292" lon="4.99827">
        <ele>268</ele>
        <time>2017-09-21T09:39:02Z</time>
      </trkpt>
      <trkpt lat="47.28288" lon="4.99845">
        <ele>267</ele>
        <time>2017-09-21T09:39:13Z</time>
      </trkpt>
      <trkpt lat="47.28283" lon="4.99858">
        <ele>267</ele>
        <time>2017-09-21T09:39:24Z</time>
      </trkpt>
      <trkpt lat="47.2828" lon="4.99875">
        <ele>268</ele>
        <time>2017-09-21T09:39:35Z</time>
      </trkpt>
      <trkpt lat="47.2828" lon="4.99878">
        <ele>268</ele>
        <time>2017-09-21T09:40:08Z</time>
      </trkpt>
      <trkpt lat="47.2828" lon="4.99878">
        <ele>268</ele>
        <time>2017-09-21T09:40:08Z</time>
      </trkpt>
      <trkpt lat="47.2828" lon="4.99878">
        <ele>268</ele>
        <time>2017-09-21T09:40:08Z</time>
      </trkpt>
      <trkpt lat="47.2828" lon="4.99888">
        <ele>268</ele>
        <time>2017-09-21T09:40:19Z</time>
      </trkpt>
      <trkpt lat="47.28275" lon="4.99892">
        <ele>268</ele>
        <time>2017-09-21T09:40:30Z</time>
      </trkpt>
      <trkpt lat="47.28272" lon="4.99907">
        <ele>268</ele>
        <time>2017-09-21T09:40:41Z</time>
      </trkpt>
      <trkpt lat="47.28265" lon="4.99922">
        <ele>268</ele>
        <time>2017-09-21T09:40:52Z</time>
      </trkpt>
      <trkpt lat="47.28258" lon="4.99938">
        <ele>268</ele>
        <time>2017-09-21T09:41:03Z</time>
      </trkpt>
      <trkpt lat="47.28253" lon="4.99947">
        <ele>268</ele>
        <time>2017-09-21T09:41:14Z</time>
      </trkpt>
      <trkpt lat="47.28247" lon="4.99955">
        <ele>268</ele>
        <time>2017-09-21T09:41:25Z</time>
      </trkpt>
      <trkpt lat="47.28237" lon="4.9996">
        <ele>269</ele>
        <time>2017-09-21T09:41:36Z</time>
      </trkpt>
      <trkpt lat="47.28228" lon="4.99955">
        <ele>269</ele>
        <time>2017-09-21T09:41:47Z</time>
      </trkpt>
      <trkpt lat="47.28218" lon="4.99945">
        <ele>269</ele>
        <time>2017-09-21T09:41:58Z</time>
      </trkpt>
      <trkpt lat="47.28207" lon="4.99937">
        <ele>269</ele>
        <time>2017-09-21T09:42:09Z</time>
      </trkpt>
      <trkpt lat="47.28197" lon="4.99925">
        <ele>269</ele>
        <time>2017-09-21T09:42:20Z</time>
      </trkpt>
      <trkpt lat="47.28188" lon="4.9992">
        <ele>269</ele>
        <time>2017-09-21T09:42:31Z</time>
      </trkpt>
      <trkpt lat="47.28178" lon="4.99928">
        <ele>269</ele>
        <time>2017-09-21T09:42:42Z</time>
      </trkpt>
      <trkpt lat="47.28173" lon="4.99943">
        <ele>269</ele>
        <time>2017-09-21T09:42:53Z</time>
      </trkpt>
      <trkpt lat="47.28165" lon="4.99958">
        <ele>270</ele>
        <time>2017-09-21T09:43:04Z</time>
      </trkpt>
      <trkpt lat="47.2816" lon="4.99972">
        <ele>270</ele>
        <time>2017-09-21T09:43:15Z</time>
      </trkpt>
      <trkpt lat="47.28157" lon="4.99988">
        <ele>270</ele>
        <time>2017-09-21T09:43:26Z</time>
      </trkpt>
      <trkpt lat="47.2815" lon="5.00005">
        <ele>270</ele>
        <time>2017-09-21T09:43:37Z</time>
      </trkpt>
      <trkpt lat="47.28143" lon="5.00022">
        <ele>269</ele>
        <time>2017-09-21T09:43:48Z</time>
      </trkpt>
      <trkpt lat="47.28137" lon="5.00038">
        <ele>269</ele>
        <time>2017-09-21T09:43:59Z</time>
      </trkpt>
      <trkpt lat="47.2813" lon="5.00052">
        <ele>269</ele>
        <time>2017-09-21T09:44:10Z</time>
      </trkpt>
      <trkpt lat="47.28125" lon="5.00067">
        <ele>269</ele>
        <time>2017-09-21T09:44:21Z</time>
      </trkpt>
      <trkpt lat="47.2812" lon="5.00082">
        <ele>269</ele>
        <time>2017-09-21T09:44:32Z</time>
      </trkpt>
      <trkpt lat="47.28115" lon="5.00097">
        <ele>268</ele>
        <time>2017-09-21T09:44:43Z</time>
      </trkpt>
      <trkpt lat="47.2811" lon="5.00112">
        <ele>268</ele>
        <time>2017-09-21T09:44:54Z</time>
      </trkpt>
      <trkpt lat="47.28105" lon="5.00127">
        <ele>267</ele>
        <time>2017-09-21T09:45:05Z</time>
      </trkpt>
      <trkpt lat="47.281" lon="5.00143">
        <ele>267</ele>
        <time>2017-09-21T09:45:16Z</time>
      </trkpt>
      <trkpt lat="47.28093" lon="5.00158">
        <ele>267</ele>
        <time>2017-09-21T09:45:27Z</time>
      </trkpt>
      <trkpt lat="47.28087" lon="5.00173">
        <ele>266</ele>
        <time>2017-09-21T09:45:38Z</time>
      </trkpt>
      <trkpt lat="47.28082" lon="5.00188">
        <ele>266</ele>
        <time>2017-09-21T09:45:49Z</time>
      </trkpt>
      <trkpt lat="47.28075" lon="5.00203">
        <ele>266</ele>
        <time>2017-09-21T09:46:00Z</time>
      </trkpt>
      <trkpt lat="47.2807" lon="5.0022">
        <ele>266</ele>
        <time>2017-09-21T09:46:11Z</time>
      </trkpt>
      <trkpt lat="47.28063" lon="5.00233">
        <ele>265</ele>
        <time>2017-09-21T09:46:22Z</time>
      </trkpt>
      <trkpt lat="47.28057" lon="5.00245">
        <ele>265</ele>
        <time>2017-09-21T09:46:33Z</time>
      </trkpt>
      <trkpt lat="47.28052" lon="5.0026">
        <ele>265</ele>
        <time>2017-09-21T09:46:44Z</time>
      </trkpt>
      <trkpt lat="47.2805" lon="5.00277">
        <ele>265</ele>
        <time>2017-09-21T09:46:55Z</time>
      </trkpt>
      <trkpt lat="47.28047" lon="5.00285">
        <ele>265</ele>
        <time>2017-09-21T09:47:06Z</time>
      </trkpt>
      <trkpt lat="47.28042" lon="5.00292">
        <ele>265</ele>
        <time>2017-09-21T09:47:17Z</time>
      </trkpt>
      <trkpt lat="47.28035" lon="5.00292">
        <ele>265</ele>
        <time>2017-09-21T09:47:28Z</time>
      </trkpt>
      <trkpt lat="47.28025" lon="5.00287">
        <ele>265</ele>
        <time>2017-09-21T09:47:39Z</time>
      </trkpt>
      <trkpt lat="47.28018" lon="5.00283">
        <ele>265</ele>
        <time>2017-09-21T09:47:50Z</time>
      </trkpt>
      <trkpt lat="47.28017" lon="5.00285">
        <ele>265</ele>
        <time>2017-09-21T09:48:01Z</time>
      </trkpt>
      <trkpt lat="47.2801" lon="5.00282">
        <ele>265</ele>
        <time>2017-09-21T09:48:12Z</time>
      </trkpt>
      <trkpt lat="47.28005" lon="5.00278">
        <ele>265</ele>
        <time>2017-09-21T09:48:34Z</time>
      </trkpt>
      <trkpt lat="47.28005" lon="5.00278">
        <ele>265</ele>
        <time>2017-09-21T09:48:34Z</time>
      </trkpt>
      <trkpt lat="47.28003" lon="5.0028">
        <ele>265</ele>
        <time>2017-09-21T09:49:18Z</time>
      </trkpt>
      <trkpt lat="47.28003" lon="5.0028">
        <ele>265</ele>
        <time>2017-09-21T09:49:18Z</time>
      </trkpt>
      <trkpt lat="47.28003" lon="5.0028">
        <ele>265</ele>
        <time>2017-09-21T09:49:18Z</time>
      </trkpt>
      <trkpt lat="47.28003" lon="5.0028">
        <ele>265</ele>
        <time>2017-09-21T09:49:18Z</time>
      </trkpt>
      <trkpt lat="47.28002" lon="5.0028">
        <ele>265</ele>
        <time>2017-09-21T09:49:29Z</time>
      </trkpt>
      <trkpt lat="47.28002" lon="5.00282">
        <ele>265</ele>
        <time>2017-09-21T09:49:51Z</time>
      </trkpt>
      <trkpt lat="47.28002" lon="5.00282">
        <ele>265</ele>
        <time>2017-09-21T09:49:51Z</time>
      </trkpt>
      <trkpt lat="47.28" lon="5.00282">
        <ele>265</ele>
        <time>2017-09-21T09:51:08Z</time>
      </trkpt>
      <trkpt lat="47.28" lon="5.00282">
        <ele>265</ele>
        <time>2017-09-21T09:51:08Z</time>
      </trkpt>
      <trkpt lat="47.28" lon="5.00282">
        <ele>265</ele>
        <time>2017-09-21T09:51:08Z</time>
      </trkpt>
      <trkpt lat="47.28" lon="5.00282">
        <ele>265</ele>
        <time>2017-09-21T09:51:08Z</time>
      </trkpt>
      <trkpt lat="47.28" lon="5.00282">
        <ele>265</ele>
        <time>2017-09-21T09:51:08Z</time>
      </trkpt>
      <trkpt lat="47.28" lon="5.00282">
        <ele>265</ele>
        <time>2017-09-21T09:51:08Z</time>
      </trkpt>
      <trkpt lat="47.28" lon="5.00282">
        <ele>265</ele>
        <time>2017-09-21T09:51:08Z</time>
      </trkpt>
      <trkpt lat="47.27998" lon="5.00282">
        <ele>265</ele>
        <time>2017-09-21T09:51:19Z</time>
      </trkpt>
      <trkpt lat="47.27997" lon="5.00282">
        <ele>265</ele>
        <time>2017-09-21T09:51:30Z</time>
      </trkpt>
      <trkpt lat="47.27995" lon="5.00283">
        <ele>265</ele>
        <time>2017-09-21T09:52:03Z</time>
      </trkpt>
      <trkpt lat="47.27995" lon="5.00283">
        <ele>265</ele>
        <time>2017-09-21T09:52:03Z</time>
      </trkpt>
      <trkpt lat="47.27995" lon="5.00283">
        <ele>265</ele>
        <time>2017-09-21T09:52:03Z</time>
      </trkpt>
      <trkpt lat="47.27993" lon="5.00283">
        <ele>265</ele>
        <time>2017-09-21T09:52:14Z</time>
      </trkpt>
      <trkpt lat="47.27992" lon="5.00285">
        <ele>265</ele>
        <time>2017-09-21T09:52:58Z</time>
      </trkpt>
      <trkpt lat="47.27992" lon="5.00285">
        <ele>265</ele>
        <time>2017-09-21T09:52:58Z</time>
      </trkpt>
      <trkpt lat="47.27992" lon="5.00285">
        <ele>265</ele>
        <time>2017-09-21T09:52:58Z</time>
      </trkpt>
      <trkpt lat="47.27992" lon="5.00285">
        <ele>265</ele>
        <time>2017-09-21T09:52:58Z</time>
      </trkpt>
      <trkpt lat="47.27992" lon="5.00283">
        <ele>265</ele>
        <time>2017-09-21T09:53:09Z</time>
      </trkpt>
      <trkpt lat="47.2799" lon="5.00283">
        <ele>266</ele>
        <time>2017-09-21T09:53:31Z</time>
      </trkpt>
      <trkpt lat="47.2799" lon="5.00283">
        <ele>266</ele>
        <time>2017-09-21T09:53:31Z</time>
      </trkpt>
      <trkpt lat="47.2799" lon="5.00285">
        <ele>266</ele>
        <time>2017-09-21T09:53:53Z</time>
      </trkpt>
      <trkpt lat="47.2799" lon="5.00285">
        <ele>266</ele>
        <time>2017-09-21T09:53:53Z</time>
      </trkpt>
      <trkpt lat="47.2799" lon="5.00287">
        <ele>266</ele>
        <time>2017-09-21T09:54:04Z</time>
      </trkpt>
      <trkpt lat="47.27988" lon="5.00287">
        <ele>266</ele>
        <time>2017-09-21T09:54:26Z</time>
      </trkpt>
      <trkpt lat="47.27988" lon="5.00287">
        <ele>266</ele>
        <time>2017-09-21T09:54:26Z</time>
      </trkpt>
      <trkpt lat="47.27988" lon="5.00288">
        <ele>266</ele>
        <time>2017-09-21T09:54:37Z</time>
      </trkpt>
      <trkpt lat="47.27987" lon="5.00288">
        <ele>266</ele>
        <time>2017-09-21T09:54:48Z</time>
      </trkpt>
    </trkseg>
  </trk>
</gpx>